sensor_id;sensor_type;location;lat;lon;timestamp;P1;durP1;ratioP1;P2;durP2;ratioP2
1020;SDS011;499;42.648;23.270;2024-03-23T00:56:48;3.00;;;2.47;;
1020;SDS011;499;42.648;23.270;2024-03-23T01:07:01;3.73;;;3.30;;
1020;SDS011;499;42.648;23.270;2024-03-23T01:09:58;2.70;;;2.30;;
1020;SDS011;499;42.648;23.270;2024-03-23T01:12:31;3.30;;;2.90;;
1020;SDS011;499;42.648;23.270;2024-03-23T01:15:55;6.17;;;2.60;;
1020;SDS011;499;42.648;23.270;2024-03-23T01:18:49;3.70;;;2.73;;
1020;SDS011;499;42.648;23.270;2024-03-23T01:28:44;3.17;;;2.60;;
1020;SDS011;499;42.648;23.270;2024-03-23T01:31:33;2.10;;;1.90;;
1020;SDS011;499;42.648;23.270;2024-03-23T01:37:53;3.07;;;2.43;;
1020;SDS011;499;42.648;23.270;2024-03-23T01:51:00;3.30;;;2.20;;
1020;SDS011;499;42.648;23.270;2024-03-23T01:53:29;2.73;;;2.30;;
1020;SDS011;499;42.648;23.270;2024-03-23T01:56:04;2.60;;;2.27;;
1020;SDS011;499;42.648;23.270;2024-03-23T01:59:09;3.40;;;2.77;;
1020;SDS011;499;42.648;23.270;2024-03-23T02:02:08;4.57;;;3.00;;
1020;SDS011;499;42.648;23.270;2024-03-23T02:05:07;3.13;;;2.23;;
1020;SDS011;499;42.648;23.270;2024-03-23T02:07:38;3.23;;;2.20;;
1020;SDS011;499;42.648;23.270;2024-03-23T02:10:20;2.80;;;2.47;;
1020;SDS011;499;42.648;23.270;2024-03-23T02:23:04;3.73;;;2.57;;
1020;SDS011;499;42.648;23.270;2024-03-23T02:26:12;3.60;;;2.10;;
1020;SDS011;499;42.648;23.270;2024-03-23T02:28:51;2.63;;;2.00;;
1020;SDS011;499;42.648;23.270;2024-03-23T02:32:45;4.67;;;3.40;;
1020;SDS011;499;42.648;23.270;2024-03-23T02:36:09;2.33;;;2.10;;
1020;SDS011;499;42.648;23.270;2024-03-23T02:39:57;7.03;;;2.33;;
1020;SDS011;499;42.648;23.270;2024-03-23T02:43:15;3.50;;;2.13;;
1020;SDS011;499;42.648;23.270;2024-03-23T02:46:37;2.60;;;2.33;;
1020;SDS011;499;42.648;23.270;2024-03-23T02:49:59;2.93;;;2.63;;
1020;SDS011;499;42.648;23.270;2024-03-23T02:53:28;2.90;;;2.60;;
1020;SDS011;499;42.648;23.270;2024-03-23T02:57:17;4.20;;;2.33;;
1020;SDS011;499;42.648;23.270;2024-03-23T03:00:36;2.80;;;2.00;;
1020;SDS011;499;42.648;23.270;2024-03-23T03:03:30;2.60;;;2.07;;
1020;SDS011;499;42.648;23.270;2024-03-23T03:06:14;2.30;;;1.80;;
1020;SDS011;499;42.648;23.270;2024-03-23T03:09:45;2.90;;;2.40;;
1020;SDS011;499;42.648;23.270;2024-03-23T03:13:15;2.50;;;2.00;;
1020;SDS011;499;42.648;23.270;2024-03-23T03:16:21;4.00;;;2.63;;
1020;SDS011;499;42.648;23.270;2024-03-23T03:19:07;3.63;;;2.90;;
1020;SDS011;499;42.648;23.270;2024-03-23T03:22:02;3.17;;;2.77;;
1020;SDS011;499;42.648;23.270;2024-03-23T03:24:44;3.23;;;2.80;;
1020;SDS011;499;42.648;23.270;2024-03-23T03:27:36;3.50;;;2.90;;
1020;SDS011;499;42.648;23.270;2024-03-23T03:30:37;5.60;;;3.50;;
1020;SDS011;499;42.648;23.270;2024-03-23T03:33:26;3.23;;;2.93;;
1020;SDS011;499;42.648;23.270;2024-03-23T03:36:12;3.73;;;3.00;;
1020;SDS011;499;42.648;23.270;2024-03-23T03:39:10;3.87;;;2.97;;
1020;SDS011;499;42.648;23.270;2024-03-23T03:41:53;4.60;;;3.50;;
1020;SDS011;499;42.648;23.270;2024-03-23T03:44:52;3.83;;;3.43;;
1020;SDS011;499;42.648;23.270;2024-03-23T03:47:53;5.97;;;2.80;;
1020;SDS011;499;42.648;23.270;2024-03-23T03:50:45;2.97;;;2.67;;
1020;SDS011;499;42.648;23.270;2024-03-23T03:53:16;3.90;;;2.77;;
1020;SDS011;499;42.648;23.270;2024-03-23T03:55:47;3.77;;;3.27;;
1020;SDS011;499;42.648;23.270;2024-03-23T03:58:57;4.37;;;2.93;;
1020;SDS011;499;42.648;23.270;2024-03-23T04:02:27;3.20;;;2.33;;
1020;SDS011;499;42.648;23.270;2024-03-23T04:09:36;3.80;;;2.73;;
1020;SDS011;499;42.648;23.270;2024-03-23T04:13:06;4.10;;;2.90;;
1020;SDS011;499;42.648;23.270;2024-03-23T04:16:34;3.80;;;2.90;;
1020;SDS011;499;42.648;23.270;2024-03-23T04:19:53;4.33;;;3.20;;
1020;SDS011;499;42.648;23.270;2024-03-23T04:27:13;8.63;;;5.57;;
1020;SDS011;499;42.648;23.270;2024-03-23T04:30:39;5.87;;;3.43;;
1020;SDS011;499;42.648;23.270;2024-03-23T04:33:58;3.20;;;2.70;;
1020;SDS011;499;42.648;23.270;2024-03-23T04:37:51;3.70;;;3.33;;
1020;SDS011;499;42.648;23.270;2024-03-23T04:41:24;6.57;;;3.73;;
1020;SDS011;499;42.648;23.270;2024-03-23T04:55:21;3.00;;;2.50;;
1020;SDS011;499;42.648;23.270;2024-03-23T04:58:10;2.90;;;2.60;;
1020;SDS011;499;42.648;23.270;2024-03-23T05:01:07;3.83;;;3.00;;
1020;SDS011;499;42.648;23.270;2024-03-23T05:04:12;4.43;;;3.50;;
1020;SDS011;499;42.648;23.270;2024-03-23T05:07:36;4.10;;;3.40;;
1020;SDS011;499;42.648;23.270;2024-03-23T05:14:44;7.07;;;6.17;;
1020;SDS011;499;42.648;23.270;2024-03-23T05:17:23;7.27;;;5.87;;
1020;SDS011;499;42.648;23.270;2024-03-23T05:20:24;8.73;;;7.27;;
1020;SDS011;499;42.648;23.270;2024-03-23T05:23:22;11.37;;;8.00;;
1020;SDS011;499;42.648;23.270;2024-03-23T05:26:27;12.30;;;7.70;;
1020;SDS011;499;42.648;23.270;2024-03-23T05:29:23;14.37;;;7.90;;
1020;SDS011;499;42.648;23.270;2024-03-23T05:32:18;11.27;;;8.17;;
1020;SDS011;499;42.648;23.270;2024-03-23T05:35:08;16.90;;;10.20;;
1020;SDS011;499;42.648;23.270;2024-03-23T05:38:02;10.70;;;8.37;;
1020;SDS011;499;42.648;23.270;2024-03-23T05:41:00;15.30;;;7.87;;
1020;SDS011;499;42.648;23.270;2024-03-23T05:44:16;10.40;;;8.20;;
1020;SDS011;499;42.648;23.270;2024-03-23T05:47:07;12.30;;;8.93;;
1020;SDS011;499;42.648;23.270;2024-03-23T05:50:24;11.03;;;7.33;;
1020;SDS011;499;42.648;23.270;2024-03-23T05:53:23;13.83;;;7.27;;
1020;SDS011;499;42.648;23.270;2024-03-23T05:56:50;8.60;;;6.80;;
1020;SDS011;499;42.648;23.270;2024-03-23T06:00:22;11.93;;;8.17;;
1020;SDS011;499;42.648;23.270;2024-03-23T06:03:23;12.50;;;7.37;;
1020;SDS011;499;42.648;23.270;2024-03-23T06:06:29;12.57;;;7.83;;
1020;SDS011;499;42.648;23.270;2024-03-23T06:09:16;9.70;;;7.43;;
1020;SDS011;499;42.648;23.270;2024-03-23T06:11:48;13.50;;;9.07;;
1020;SDS011;499;42.648;23.270;2024-03-23T06:15:00;14.67;;;8.80;;
1020;SDS011;499;42.648;23.270;2024-03-23T06:18:16;13.17;;;8.27;;
1020;SDS011;499;42.648;23.270;2024-03-23T06:28:14;8.80;;;6.80;;
1020;SDS011;499;42.648;23.270;2024-03-23T06:30:55;12.10;;;9.23;;
1020;SDS011;499;42.648;23.270;2024-03-23T06:37:45;13.10;;;9.43;;
1020;SDS011;499;42.648;23.270;2024-03-23T06:40:40;18.40;;;8.90;;
1020;SDS011;499;42.648;23.270;2024-03-23T06:43:39;15.73;;;9.30;;
1020;SDS011;499;42.648;23.270;2024-03-23T06:46:52;14.80;;;8.47;;
1020;SDS011;499;42.648;23.270;2024-03-23T06:49:40;13.33;;;8.40;;
1020;SDS011;499;42.648;23.270;2024-03-23T06:52:55;11.83;;;9.70;;
1020;SDS011;499;42.648;23.270;2024-03-23T06:55:33;12.30;;;9.30;;
1020;SDS011;499;42.648;23.270;2024-03-23T06:58:38;14.67;;;9.13;;
1020;SDS011;499;42.648;23.270;2024-03-23T07:01:22;13.40;;;9.77;;
1020;SDS011;499;42.648;23.270;2024-03-23T07:07:36;11.70;;;8.73;;
1020;SDS011;499;42.648;23.270;2024-03-23T07:10:11;14.30;;;11.33;;
1020;SDS011;499;42.648;23.270;2024-03-23T07:20:23;11.13;;;8.70;;
1020;SDS011;499;42.648;23.270;2024-03-23T07:23:49;16.03;;;9.43;;
1020;SDS011;499;42.648;23.270;2024-03-23T07:26:30;17.07;;;9.27;;
1020;SDS011;499;42.648;23.270;2024-03-23T07:29:22;14.53;;;10.53;;
1020;SDS011;499;42.648;23.270;2024-03-23T07:33:00;13.90;;;9.40;;
1020;SDS011;499;42.648;23.270;2024-03-23T07:35:28;16.53;;;11.30;;
1020;SDS011;499;42.648;23.270;2024-03-23T07:38:56;13.37;;;9.40;;
1020;SDS011;499;42.648;23.270;2024-03-23T07:41:51;11.20;;;9.07;;
1020;SDS011;499;42.648;23.270;2024-03-23T07:45:25;13.60;;;10.90;;
1020;SDS011;499;42.648;23.270;2024-03-23T07:55:43;16.97;;;11.03;;
1020;SDS011;499;42.648;23.270;2024-03-23T07:58:55;12.47;;;10.30;;
1020;SDS011;499;42.648;23.270;2024-03-23T08:02:18;18.10;;;13.47;;
1020;SDS011;499;42.648;23.270;2024-03-23T08:05:17;10.93;;;8.60;;
1020;SDS011;499;42.648;23.270;2024-03-23T08:08:46;11.23;;;10.03;;
1020;SDS011;499;42.648;23.270;2024-03-23T08:22:13;17.30;;;12.90;;
1020;SDS011;499;42.648;23.270;2024-03-23T08:25:42;15.33;;;10.17;;
1020;SDS011;499;42.648;23.270;2024-03-23T08:29:11;12.57;;;11.20;;
1020;SDS011;499;42.648;23.270;2024-03-23T08:32:49;11.63;;;10.30;;
1020;SDS011;499;42.648;23.270;2024-03-23T08:36:29;13.93;;;9.93;;
1020;SDS011;499;42.648;23.270;2024-03-23T08:45:46;14.10;;;11.90;;
1020;SDS011;499;42.648;23.270;2024-03-23T08:49:23;14.50;;;10.87;;
1020;SDS011;499;42.648;23.270;2024-03-23T09:06:39;15.93;;;11.73;;
1020;SDS011;499;42.648;23.270;2024-03-23T09:09:54;13.70;;;10.93;;
1020;SDS011;499;42.648;23.270;2024-03-23T09:13:00;13.90;;;11.13;;
1020;SDS011;499;42.648;23.270;2024-03-23T09:15:46;12.47;;;10.23;;
1020;SDS011;499;42.648;23.270;2024-03-23T09:18:53;16.53;;;10.30;;
1020;SDS011;499;42.648;23.270;2024-03-23T09:22:04;12.57;;;9.60;;
1020;SDS011;499;42.648;23.270;2024-03-23T09:25:01;16.87;;;13.23;;
1020;SDS011;499;42.648;23.270;2024-03-23T09:28:56;14.87;;;9.93;;
1020;SDS011;499;42.648;23.270;2024-03-23T09:31:38;17.57;;;10.67;;
1020;SDS011;499;42.648;23.270;2024-03-23T09:35:16;14.50;;;9.47;;
1020;SDS011;499;42.648;23.270;2024-03-23T09:54:37;15.00;;;9.40;;
1020;SDS011;499;42.648;23.270;2024-03-23T09:57:27;13.53;;;9.60;;
1020;SDS011;499;42.648;23.270;2024-03-23T10:00:52;15.77;;;9.67;;
1020;SDS011;499;42.648;23.270;2024-03-23T10:03:33;11.07;;;9.10;;
1020;SDS011;499;42.648;23.270;2024-03-23T10:06:52;19.13;;;11.43;;
1020;SDS011;499;42.648;23.270;2024-03-23T10:13:34;13.17;;;8.93;;
1020;SDS011;499;42.648;23.270;2024-03-23T10:16:38;12.10;;;8.57;;
1020;SDS011;499;42.648;23.270;2024-03-23T10:19:30;13.03;;;9.60;;
1020;SDS011;499;42.648;23.270;2024-03-23T10:21:59;12.50;;;8.30;;
1020;SDS011;499;42.648;23.270;2024-03-23T10:24:31;11.60;;;8.47;;
1020;SDS011;499;42.648;23.270;2024-03-23T10:28:07;12.30;;;9.20;;
1020;SDS011;499;42.648;23.270;2024-03-23T10:37:50;9.37;;;7.43;;
1020;SDS011;499;42.648;23.270;2024-03-23T10:40:28;9.13;;;6.77;;
1020;SDS011;499;42.648;23.270;2024-03-23T10:43:10;8.67;;;7.50;;
1020;SDS011;499;42.648;23.270;2024-03-23T10:46:10;11.20;;;9.07;;
1020;SDS011;499;42.648;23.270;2024-03-23T10:49:07;9.03;;;7.47;;
1020;SDS011;499;42.648;23.270;2024-03-23T10:52:33;9.47;;;7.60;;
1020;SDS011;499;42.648;23.270;2024-03-23T10:55:09;9.93;;;8.43;;
1020;SDS011;499;42.648;23.270;2024-03-23T10:58:04;8.80;;;7.70;;
1020;SDS011;499;42.648;23.270;2024-03-23T11:01:15;8.90;;;6.73;;
1020;SDS011;499;42.648;23.270;2024-03-23T11:03:45;9.10;;;7.20;;
1020;SDS011;499;42.648;23.270;2024-03-23T11:07:09;12.83;;;7.50;;
1020;SDS011;499;42.648;23.270;2024-03-23T11:10:01;7.93;;;6.00;;
1020;SDS011;499;42.648;23.270;2024-03-23T11:12:57;9.17;;;6.50;;
1020;SDS011;499;42.648;23.270;2024-03-23T11:16:28;9.27;;;7.27;;
1020;SDS011;499;42.648;23.270;2024-03-23T11:25:40;8.90;;;7.20;;
1020;SDS011;499;42.648;23.270;2024-03-23T11:28:36;9.13;;;6.97;;
1020;SDS011;499;42.648;23.270;2024-03-23T11:31:34;12.90;;;7.40;;
1020;SDS011;499;42.648;23.270;2024-03-23T11:37:32;6.80;;;5.30;;
1020;SDS011;499;42.648;23.270;2024-03-23T11:40:33;4.53;;;3.63;;
1020;SDS011;499;42.648;23.270;2024-03-23T11:43:54;3.80;;;3.00;;
1020;SDS011;499;42.648;23.270;2024-03-23T11:46:41;5.23;;;3.47;;
1020;SDS011;499;42.648;23.270;2024-03-23T11:49:56;4.63;;;3.20;;
1020;SDS011;499;42.648;23.270;2024-03-23T11:52:34;3.13;;;2.63;;
1020;SDS011;499;42.648;23.270;2024-03-23T11:55:32;6.37;;;3.73;;
1020;SDS011;499;42.648;23.270;2024-03-23T11:59:03;3.33;;;2.80;;
1020;SDS011;499;42.648;23.270;2024-03-23T12:01:33;5.60;;;3.00;;
1020;SDS011;499;42.648;23.270;2024-03-23T12:04:06;2.93;;;2.60;;
1020;SDS011;499;42.648;23.270;2024-03-23T12:06:56;4.80;;;3.03;;
1020;SDS011;499;42.648;23.270;2024-03-23T12:10:07;2.97;;;2.33;;
1020;SDS011;499;42.648;23.270;2024-03-23T12:12:39;2.50;;;1.80;;
1020;SDS011;499;42.648;23.270;2024-03-23T12:15:27;2.33;;;1.83;;
1020;SDS011;499;42.648;23.270;2024-03-23T12:18:08;2.80;;;1.83;;
1020;SDS011;499;42.648;23.270;2024-03-23T12:21:41;3.13;;;2.20;;
1020;SDS011;499;42.648;23.270;2024-03-23T12:24:36;2.07;;;1.63;;
1020;SDS011;499;42.648;23.270;2024-03-23T12:31:27;3.30;;;1.77;;
1020;SDS011;499;42.648;23.270;2024-03-23T12:34:07;2.60;;;1.70;;
1020;SDS011;499;42.648;23.270;2024-03-23T12:37:25;2.13;;;1.90;;
1020;SDS011;499;42.648;23.270;2024-03-23T12:40:46;3.83;;;1.63;;
1020;SDS011;499;42.648;23.270;2024-03-23T12:43:33;2.40;;;2.20;;
1020;SDS011;499;42.648;23.270;2024-03-23T12:53:43;2.30;;;1.60;;
1020;SDS011;499;42.648;23.270;2024-03-23T12:56:38;2.23;;;1.50;;
1020;SDS011;499;42.648;23.270;2024-03-23T12:59:44;2.40;;;1.53;;
1020;SDS011;499;42.648;23.270;2024-03-23T13:03:46;5.83;;;1.67;;
1020;SDS011;499;42.648;23.270;2024-03-23T13:06:25;3.40;;;2.17;;
1020;SDS011;499;42.648;23.270;2024-03-23T13:09:26;4.00;;;1.70;;
1020;SDS011;499;42.648;23.270;2024-03-23T13:12:38;1.57;;;1.27;;
1020;SDS011;499;42.648;23.270;2024-03-23T13:15:35;2.60;;;2.03;;
1020;SDS011;499;42.648;23.270;2024-03-23T13:18:37;2.07;;;1.57;;
1020;SDS011;499;42.648;23.270;2024-03-23T13:22:01;3.13;;;1.97;;
1020;SDS011;499;42.648;23.270;2024-03-23T13:24:32;3.17;;;1.80;;
1020;SDS011;499;42.648;23.270;2024-03-23T13:27:03;2.10;;;1.40;;
1020;SDS011;499;42.648;23.270;2024-03-23T13:30:05;1.80;;;1.30;;
1020;SDS011;499;42.648;23.270;2024-03-23T13:33:54;2.43;;;1.60;;
1020;SDS011;499;42.648;23.270;2024-03-23T13:36:34;2.30;;;1.77;;
1020;SDS011;499;42.648;23.270;2024-03-23T13:49:39;2.00;;;1.80;;
1020;SDS011;499;42.648;23.270;2024-03-23T13:52:06;4.13;;;2.10;;
1020;SDS011;499;42.648;23.270;2024-03-23T13:54:40;2.50;;;1.77;;
1020;SDS011;499;42.648;23.270;2024-03-23T13:58:11;5.20;;;4.13;;
1020;SDS011;499;42.648;23.270;2024-03-23T14:01:28;2.33;;;2.13;;
1020;SDS011;499;42.648;23.270;2024-03-23T14:05:05;3.37;;;1.80;;
1020;SDS011;499;42.648;23.270;2024-03-23T14:07:58;3.40;;;2.30;;
1020;SDS011;499;42.648;23.270;2024-03-23T14:11:04;3.77;;;1.83;;
1020;SDS011;499;42.648;23.270;2024-03-23T14:13:34;5.40;;;2.00;;
1020;SDS011;499;42.648;23.270;2024-03-23T14:16:05;2.90;;;1.93;;
1020;SDS011;499;42.648;23.270;2024-03-23T14:18:56;3.17;;;2.10;;
1020;SDS011;499;42.648;23.270;2024-03-23T14:21:48;4.70;;;1.90;;
1020;SDS011;499;42.648;23.270;2024-03-23T14:24:55;3.20;;;2.43;;
1020;SDS011;499;42.648;23.270;2024-03-23T14:28:05;4.77;;;2.30;;
1020;SDS011;499;42.648;23.270;2024-03-23T14:31:38;3.90;;;2.23;;
1020;SDS011;499;42.648;23.270;2024-03-23T14:35:04;4.33;;;2.73;;
1020;SDS011;499;42.648;23.270;2024-03-23T14:41:33;5.03;;;3.63;;
1020;SDS011;499;42.648;23.270;2024-03-23T14:44:33;4.30;;;3.30;;
1020;SDS011;499;42.648;23.270;2024-03-23T14:47:07;8.40;;;4.07;;
1020;SDS011;499;42.648;23.270;2024-03-23T14:53:02;3.73;;;3.13;;
1020;SDS011;499;42.648;23.270;2024-03-23T14:55:39;3.50;;;2.53;;
1020;SDS011;499;42.648;23.270;2024-03-23T14:58:56;5.03;;;3.00;;
1020;SDS011;499;42.648;23.270;2024-03-23T15:01:38;6.63;;;3.37;;
1020;SDS011;499;42.648;23.270;2024-03-23T15:05:13;3.53;;;2.73;;
1020;SDS011;499;42.648;23.270;2024-03-23T15:08:20;4.20;;;3.13;;
1020;SDS011;499;42.648;23.270;2024-03-23T15:11:20;4.30;;;3.27;;
1020;SDS011;499;42.648;23.270;2024-03-23T15:17:34;4.60;;;3.00;;
1020;SDS011;499;42.648;23.270;2024-03-23T15:20:17;3.13;;;2.63;;
1020;SDS011;499;42.648;23.270;2024-03-23T15:27:19;3.60;;;2.80;;
1020;SDS011;499;42.648;23.270;2024-03-23T15:34:03;3.50;;;2.80;;
1020;SDS011;499;42.648;23.270;2024-03-23T15:37:26;4.90;;;3.40;;
1020;SDS011;499;42.648;23.270;2024-03-23T15:41:00;3.47;;;3.17;;
1020;SDS011;499;42.648;23.270;2024-03-23T15:44:23;5.80;;;4.60;;
1020;SDS011;499;42.648;23.270;2024-03-23T15:47:28;5.70;;;4.27;;
1020;SDS011;499;42.648;23.270;2024-03-23T15:49:59;5.47;;;4.20;;
1020;SDS011;499;42.648;23.270;2024-03-23T15:55:57;3.80;;;3.10;;
1020;SDS011;499;42.648;23.270;2024-03-23T15:58:32;3.67;;;2.60;;
1020;SDS011;499;42.648;23.270;2024-03-23T16:01:58;4.33;;;3.50;;
1020;SDS011;499;42.648;23.270;2024-03-23T16:08:54;4.40;;;3.00;;
1020;SDS011;499;42.648;23.270;2024-03-23T16:11:25;3.30;;;2.97;;
1020;SDS011;499;42.648;23.270;2024-03-23T16:14:26;3.77;;;3.20;;
1020;SDS011;499;42.648;23.270;2024-03-23T16:17:02;7.10;;;3.63;;
1020;SDS011;499;42.648;23.270;2024-03-23T16:20:51;6.87;;;3.60;;
1020;SDS011;499;42.648;23.270;2024-03-23T16:23:38;4.07;;;3.10;;
1020;SDS011;499;42.648;23.270;2024-03-23T16:36:51;5.20;;;4.07;;
1020;SDS011;499;42.648;23.270;2024-03-23T16:39:40;5.90;;;3.70;;
1020;SDS011;499;42.648;23.270;2024-03-23T16:42:50;3.50;;;3.20;;
1020;SDS011;499;42.648;23.270;2024-03-23T16:46:37;3.57;;;3.23;;
1020;SDS011;499;42.648;23.270;2024-03-23T16:49:43;4.50;;;3.27;;
1020;SDS011;499;42.648;23.270;2024-03-23T16:52:45;3.13;;;2.83;;
1020;SDS011;499;42.648;23.270;2024-03-23T16:56:17;3.77;;;3.37;;
1020;SDS011;499;42.648;23.270;2024-03-23T16:58:59;3.97;;;3.60;;
1020;SDS011;499;42.648;23.270;2024-03-23T17:02:05;5.37;;;3.33;;
1020;SDS011;499;42.648;23.270;2024-03-23T17:09:02;3.90;;;3.50;;
1020;SDS011;499;42.648;23.270;2024-03-23T17:12:03;4.37;;;3.50;;
1020;SDS011;499;42.648;23.270;2024-03-23T17:15:45;3.87;;;3.37;;
1020;SDS011;499;42.648;23.270;2024-03-23T17:19:22;6.27;;;3.57;;
1020;SDS011;499;42.648;23.270;2024-03-23T17:22:36;4.43;;;3.97;;
1020;SDS011;499;42.648;23.270;2024-03-23T17:25:12;4.57;;;3.17;;
1020;SDS011;499;42.648;23.270;2024-03-23T17:28:08;3.57;;;3.20;;
1020;SDS011;499;42.648;23.270;2024-03-23T17:30:52;3.87;;;3.23;;
1020;SDS011;499;42.648;23.270;2024-03-23T17:33:45;3.30;;;3.00;;
1020;SDS011;499;42.648;23.270;2024-03-23T17:36:21;3.23;;;2.80;;
1020;SDS011;499;42.648;23.270;2024-03-23T17:39:02;4.80;;;3.23;;
1020;SDS011;499;42.648;23.270;2024-03-23T17:42:05;5.93;;;3.67;;
1020;SDS011;499;42.648;23.270;2024-03-23T17:45:13;7.07;;;5.70;;
1020;SDS011;499;42.648;23.270;2024-03-23T17:48:32;3.80;;;3.40;;
1020;SDS011;499;42.648;23.270;2024-03-23T17:51:45;3.60;;;3.30;;
1020;SDS011;499;42.648;23.270;2024-03-23T17:54:15;4.67;;;3.20;;
1020;SDS011;499;42.648;23.270;2024-03-23T17:56:57;5.53;;;4.30;;
1020;SDS011;499;42.648;23.270;2024-03-23T17:59:28;3.37;;;3.07;;
1020;SDS011;499;42.648;23.270;2024-03-23T18:02:03;4.70;;;3.60;;
1020;SDS011;499;42.648;23.270;2024-03-23T18:05:31;4.33;;;3.50;;
1020;SDS011;499;42.648;23.270;2024-03-23T18:08:15;3.20;;;2.90;;
1020;SDS011;499;42.648;23.270;2024-03-23T18:11:19;3.33;;;2.90;;
1020;SDS011;499;42.648;23.270;2024-03-23T18:17:36;5.23;;;3.17;;
1020;SDS011;499;42.648;23.270;2024-03-23T18:20:40;4.47;;;3.40;;
1020;SDS011;499;42.648;23.270;2024-03-23T18:23:55;3.90;;;2.73;;
1020;SDS011;499;42.648;23.270;2024-03-23T18:27:12;4.73;;;3.33;;
1020;SDS011;499;42.648;23.270;2024-03-23T18:34:10;3.83;;;3.40;;
1020;SDS011;499;42.648;23.270;2024-03-23T18:37:08;3.50;;;2.87;;
1020;SDS011;499;42.648;23.270;2024-03-23T18:39:38;3.10;;;2.80;;
1020;SDS011;499;42.648;23.270;2024-03-23T18:42:08;3.80;;;3.40;;
1020;SDS011;499;42.648;23.270;2024-03-23T18:45:01;3.50;;;2.63;;
1020;SDS011;499;42.648;23.270;2024-03-23T18:48:36;3.97;;;3.23;;
1020;SDS011;499;42.648;23.270;2024-03-23T18:54:50;3.17;;;2.77;;
1020;SDS011;499;42.648;23.270;2024-03-23T18:57:46;3.50;;;3.17;;
1020;SDS011;499;42.648;23.270;2024-03-23T19:00:15;4.30;;;3.20;;
1020;SDS011;499;42.648;23.270;2024-03-23T19:03:26;3.63;;;3.07;;
1020;SDS011;499;42.648;23.270;2024-03-23T19:06:12;3.60;;;2.97;;
1020;SDS011;499;42.648;23.270;2024-03-23T19:09:18;3.50;;;3.20;;
1020;SDS011;499;42.648;23.270;2024-03-23T19:12:27;3.80;;;2.90;;
1020;SDS011;499;42.648;23.270;2024-03-23T19:14:58;3.73;;;2.63;;
1020;SDS011;499;42.648;23.270;2024-03-23T19:17:38;2.87;;;2.57;;
1020;SDS011;499;42.648;23.270;2024-03-23T19:20:20;4.07;;;2.90;;
1020;SDS011;499;42.648;23.270;2024-03-23T19:29:56;3.00;;;2.70;;
1020;SDS011;499;42.648;23.270;2024-03-23T19:32:25;3.20;;;2.90;;
1020;SDS011;499;42.648;23.270;2024-03-23T19:35:21;3.40;;;2.87;;
1020;SDS011;499;42.648;23.270;2024-03-23T19:38:55;3.87;;;2.60;;
1020;SDS011;499;42.648;23.270;2024-03-23T19:41:26;3.67;;;2.50;;
1020;SDS011;499;42.648;23.270;2024-03-23T19:44:02;3.10;;;2.80;;
1020;SDS011;499;42.648;23.270;2024-03-23T19:47:01;3.63;;;2.90;;
1020;SDS011;499;42.648;23.270;2024-03-23T19:53:04;4.73;;;2.37;;
1020;SDS011;499;42.648;23.270;2024-03-23T19:55:54;3.87;;;2.60;;
1020;SDS011;499;42.648;23.270;2024-03-23T19:59:10;2.27;;;2.07;;
1020;SDS011;499;42.648;23.270;2024-03-23T20:09:39;2.60;;;1.87;;
1020;SDS011;499;42.648;23.270;2024-03-23T20:50:14;14.00;;;8.40;;
1020;SDS011;499;42.648;23.270;2024-03-23T20:53:13;10.50;;;9.43;;
1020;SDS011;499;42.648;23.270;2024-03-23T20:55:58;13.53;;;9.60;;
1020;SDS011;499;42.648;23.270;2024-03-23T20:59:26;11.43;;;8.63;;
1020;SDS011;499;42.648;23.270;2024-03-23T21:02:18;14.70;;;9.73;;
1020;SDS011;499;42.648;23.270;2024-03-23T21:04:57;10.23;;;9.13;;
1020;SDS011;499;42.648;23.270;2024-03-23T21:08:19;14.03;;;9.70;;
1020;SDS011;499;42.648;23.270;2024-03-23T21:10:55;12.10;;;8.67;;
1020;SDS011;499;42.648;23.270;2024-03-23T21:13:40;10.97;;;8.90;;
1020;SDS011;499;42.648;23.270;2024-03-23T21:16:19;11.77;;;9.27;;
1020;SDS011;499;42.648;23.270;2024-03-23T21:19:13;11.33;;;9.47;;
1020;SDS011;499;42.648;23.270;2024-03-23T21:25:52;14.10;;;9.30;;
1020;SDS011;499;42.648;23.270;2024-03-23T21:29:07;17.17;;;10.87;;
1020;SDS011;499;42.648;23.270;2024-03-23T21:31:52;11.00;;;9.43;;
1020;SDS011;499;42.648;23.270;2024-03-23T21:35:14;17.80;;;11.37;;
1020;SDS011;499;42.648;23.270;2024-03-23T21:38:27;14.27;;;11.60;;
1020;SDS011;499;42.648;23.270;2024-03-23T21:41:51;13.83;;;11.30;;
1020;SDS011;499;42.648;23.270;2024-03-23T21:45:28;16.93;;;11.93;;
1020;SDS011;499;42.648;23.270;2024-03-23T21:48:40;16.40;;;11.23;;
1020;SDS011;499;42.648;23.270;2024-03-23T21:52:01;14.00;;;10.03;;
1020;SDS011;499;42.648;23.270;2024-03-23T21:58:58;11.33;;;9.13;;
1020;SDS011;499;42.648;23.270;2024-03-23T22:01:58;12.73;;;9.20;;
1020;SDS011;499;42.648;23.270;2024-03-23T22:04:58;11.43;;;8.50;;
1020;SDS011;499;42.648;23.270;2024-03-23T22:07:44;10.73;;;8.40;;
1020;SDS011;499;42.648;23.270;2024-03-23T22:11:12;11.00;;;8.40;;
1020;SDS011;499;42.648;23.270;2024-03-23T22:21:36;11.10;;;8.50;;
1020;SDS011;499;42.648;23.270;2024-03-23T22:24:59;9.40;;;8.03;;
1020;SDS011;499;42.648;23.270;2024-03-23T22:27:42;10.77;;;7.83;;
1020;SDS011;499;42.648;23.270;2024-03-23T22:31:09;8.60;;;7.20;;
1020;SDS011;499;42.648;23.270;2024-03-23T22:34:25;10.33;;;7.60;;
1020;SDS011;499;42.648;23.270;2024-03-23T22:37:46;10.17;;;7.47;;
1020;SDS011;499;42.648;23.270;2024-03-23T22:41:11;10.27;;;8.03;;
1020;SDS011;499;42.648;23.270;2024-03-23T22:44:36;8.73;;;7.40;;
1020;SDS011;499;42.648;23.270;2024-03-23T22:47:54;11.30;;;7.77;;
1020;SDS011;499;42.648;23.270;2024-03-23T22:50:36;9.60;;;7.80;;
1020;SDS011;499;42.648;23.270;2024-03-23T22:57:41;8.57;;;7.20;;
1020;SDS011;499;42.648;23.270;2024-03-23T23:00:59;10.43;;;7.93;;
1020;SDS011;499;42.648;23.270;2024-03-23T23:04:06;9.30;;;7.40;;
1020;SDS011;499;42.648;23.270;2024-03-23T23:06:56;11.43;;;7.00;;
1020;SDS011;499;42.648;23.270;2024-03-23T23:09:39;7.87;;;6.30;;
1020;SDS011;499;42.648;23.270;2024-03-23T23:16:05;6.90;;;5.87;;
1020;SDS011;499;42.648;23.270;2024-03-23T23:19:19;6.20;;;5.10;;
1020;SDS011;499;42.648;23.270;2024-03-23T23:21:58;6.40;;;4.77;;
1020;SDS011;499;42.648;23.270;2024-03-23T23:25:15;6.70;;;5.90;;
1020;SDS011;499;42.648;23.270;2024-03-23T23:27:49;6.53;;;5.43;;
1020;SDS011;499;42.648;23.270;2024-03-23T23:30:44;6.73;;;5.57;;
1020;SDS011;499;42.648;23.270;2024-03-23T23:33:59;6.23;;;5.63;;
1020;SDS011;499;42.648;23.270;2024-03-23T23:37:19;7.57;;;5.40;;
1020;SDS011;499;42.648;23.270;2024-03-23T23:40:20;5.70;;;5.00;;
1020;SDS011;499;42.648;23.270;2024-03-23T23:43:20;5.87;;;5.23;;
1020;SDS011;499;42.648;23.270;2024-03-23T23:46:19;6.70;;;6.00;;
1020;SDS011;499;42.648;23.270;2024-03-23T23:49:42;8.43;;;5.23;;
1020;SDS011;499;42.648;23.270;2024-03-23T23:52:58;6.00;;;5.40;;
1020;SDS011;499;42.648;23.270;2024-03-23T23:55:58;15.10;;;7.03;;
1020;SDS011;499;42.648;23.270;2024-03-23T23:58:45;6.30;;;5.70;;
